sensor_id;sensor_type;location;lat;lon;timestamp;temperature;humidity
30206;DHT22;17010;51.306;3.150;2022-08-06T00:00:13;14.50;99.90
30206;DHT22;17010;51.306;3.150;2022-08-06T00:02:39;14.50;99.90
30206;DHT22;17010;51.306;3.150;2022-08-06T00:05:06;14.50;99.90
30206;DHT22;17010;51.306;3.150;2022-08-06T00:07:34;14.50;99.90
30206;DHT22;17010;51.306;3.150;2022-08-06T00:10:03;14.50;99.90
30206;DHT22;17010;51.306;3.150;2022-08-06T00:12:31;14.50;99.90
30206;DHT22;17010;51.306;3.150;2022-08-06T00:14:58;14.50;99.90
30206;DHT22;17010;51.306;3.150;2022-08-06T00:17:25;14.50;99.90
30206;DHT22;17010;51.306;3.150;2022-08-06T00:19:51;14.50;99.90
30206;DHT22;17010;51.306;3.150;2022-08-06T00:22:17;14.50;99.90
30206;DHT22;17010;51.306;3.150;2022-08-06T00:24:44;14.50;99.90
30206;DHT22;17010;51.306;3.150;2022-08-06T00:27:10;14.40;99.90
30206;DHT22;17010;51.306;3.150;2022-08-06T00:29:36;14.40;99.90
30206;DHT22;17010;51.306;3.150;2022-08-06T00:32:02;14.40;99.90
30206;DHT22;17010;51.306;3.150;2022-08-06T00:34:28;14.30;99.90
30206;DHT22;17010;51.306;3.150;2022-08-06T00:36:55;14.20;99.90
30206;DHT22;17010;51.306;3.150;2022-08-06T00:39:22;14.20;99.90
30206;DHT22;17010;51.306;3.150;2022-08-06T00:41:48;14.10;99.90
30206;DHT22;17010;51.306;3.150;2022-08-06T00:44:15;14.00;99.90
30206;DHT22;17010;51.306;3.150;2022-08-06T00:46:42;13.90;99.90
30206;DHT22;17010;51.306;3.150;2022-08-06T00:49:12;13.90;99.90
30206;DHT22;17010;51.306;3.150;2022-08-06T00:51:39;13.80;99.90
30206;DHT22;17010;51.306;3.150;2022-08-06T00:54:10;13.80;99.90
30206;DHT22;17010;51.306;3.150;2022-08-06T00:56:36;13.80;99.90
30206;DHT22;17010;51.306;3.150;2022-08-06T00:59:03;13.80;99.90
30206;DHT22;17010;51.306;3.150;2022-08-06T01:01:33;13.80;99.90
30206;DHT22;17010;51.306;3.150;2022-08-06T01:03:59;13.70;99.90
30206;DHT22;17010;51.306;3.150;2022-08-06T01:06:26;13.70;99.90
30206;DHT22;17010;51.306;3.150;2022-08-06T01:08:52;13.70;99.90
30206;DHT22;17010;51.306;3.150;2022-08-06T01:11:18;13.70;99.90
30206;DHT22;17010;51.306;3.150;2022-08-06T01:13:44;13.80;99.90
30206;DHT22;17010;51.306;3.150;2022-08-06T01:16:29;13.80;99.90
30206;DHT22;17010;51.306;3.150;2022-08-06T01:19:25;13.70;99.90
30206;DHT22;17010;51.306;3.150;2022-08-06T01:22:24;13.70;99.90
30206;DHT22;17010;51.306;3.150;2022-08-06T01:27:59;13.70;99.90
30206;DHT22;17010;51.306;3.150;2022-08-06T01:30:34;13.60;99.90
30206;DHT22;17010;51.306;3.150;2022-08-06T01:33:09;13.60;99.90
30206;DHT22;17010;51.306;3.150;2022-08-06T01:35:38;13.50;99.90
30206;DHT22;17010;51.306;3.150;2022-08-06T01:38:11;13.50;99.90
30206;DHT22;17010;51.306;3.150;2022-08-06T01:40:39;13.40;99.90
30206;DHT22;17010;51.306;3.150;2022-08-06T01:43:08;13.40;99.90
30206;DHT22;17010;51.306;3.150;2022-08-06T01:45:38;13.40;99.90
30206;DHT22;17010;51.306;3.150;2022-08-06T01:48:06;13.40;99.90
30206;DHT22;17010;51.306;3.150;2022-08-06T01:50:37;13.40;99.90
30206;DHT22;17010;51.306;3.150;2022-08-06T01:53:07;13.30;99.90
30206;DHT22;17010;51.306;3.150;2022-08-06T01:55:42;13.20;99.90
30206;DHT22;17010;51.306;3.150;2022-08-06T01:58:09;13.20;99.90
30206;DHT22;17010;51.306;3.150;2022-08-06T02:00:41;13.10;99.90
30206;DHT22;17010;51.306;3.150;2022-08-06T02:03:29;13.10;99.90
30206;DHT22;17010;51.306;3.150;2022-08-06T02:05:57;13.10;99.90
30206;DHT22;17010;51.306;3.150;2022-08-06T02:08:26;13.10;99.90
30206;DHT22;17010;51.306;3.150;2022-08-06T02:10:55;13.10;99.90
30206;DHT22;17010;51.306;3.150;2022-08-06T02:13:23;13.10;99.90
30206;DHT22;17010;51.306;3.150;2022-08-06T02:15:50;13.10;99.90
30206;DHT22;17010;51.306;3.150;2022-08-06T02:18:17;13.10;99.90
30206;DHT22;17010;51.306;3.150;2022-08-06T02:20:46;13.00;99.90
30206;DHT22;17010;51.306;3.150;2022-08-06T02:23:16;13.00;99.90
30206;DHT22;17010;51.306;3.150;2022-08-06T02:25:43;12.90;99.90
30206;DHT22;17010;51.306;3.150;2022-08-06T02:28:12;12.90;99.90
30206;DHT22;17010;51.306;3.150;2022-08-06T02:30:42;12.90;99.90
30206;DHT22;17010;51.306;3.150;2022-08-06T02:33:09;12.90;99.90
30206;DHT22;17010;51.306;3.150;2022-08-06T02:35:58;12.90;99.90
30206;DHT22;17010;51.306;3.150;2022-08-06T02:38:33;12.90;99.90
30206;DHT22;17010;51.306;3.150;2022-08-06T02:41:13;12.80;99.90
30206;DHT22;17010;51.306;3.150;2022-08-06T02:43:46;12.80;99.90
30206;DHT22;17010;51.306;3.150;2022-08-06T02:46:23;12.80;99.90
30206;DHT22;17010;51.306;3.150;2022-08-06T02:51:20;12.80;99.90
30206;DHT22;17010;51.306;3.150;2022-08-06T02:54:02;12.80;99.90
30206;DHT22;17010;51.306;3.150;2022-08-06T02:56:31;12.80;99.90
30206;DHT22;17010;51.306;3.150;2022-08-06T02:58:58;12.80;99.90
30206;DHT22;17010;51.306;3.150;2022-08-06T03:01:39;12.80;99.90
30206;DHT22;17010;51.306;3.150;2022-08-06T03:04:06;12.80;99.90
30206;DHT22;17010;51.306;3.150;2022-08-06T03:06:35;12.80;99.90
30206;DHT22;17010;51.306;3.150;2022-08-06T03:09:03;12.80;99.90
30206;DHT22;17010;51.306;3.150;2022-08-06T03:11:34;12.80;99.90
30206;DHT22;17010;51.306;3.150;2022-08-06T03:14:02;12.80;99.90
30206;DHT22;17010;51.306;3.150;2022-08-06T03:16:35;12.80;99.90
30206;DHT22;17010;51.306;3.150;2022-08-06T03:19:02;12.80;99.90
30206;DHT22;17010;51.306;3.150;2022-08-06T03:21:28;12.80;99.90
30206;DHT22;17010;51.306;3.150;2022-08-06T03:23:56;12.80;99.90
30206;DHT22;17010;51.306;3.150;2022-08-06T03:26:27;12.90;99.90
30206;DHT22;17010;51.306;3.150;2022-08-06T03:28:55;12.90;99.90
30206;DHT22;17010;51.306;3.150;2022-08-06T03:31:25;12.80;99.90
30206;DHT22;17010;51.306;3.150;2022-08-06T03:33:52;12.80;99.90
30206;DHT22;17010;51.306;3.150;2022-08-06T03:36:22;12.80;99.90
30206;DHT22;17010;51.306;3.150;2022-08-06T03:38:54;12.80;99.90
30206;DHT22;17010;51.306;3.150;2022-08-06T03:41:20;12.80;99.90
30206;DHT22;17010;51.306;3.150;2022-08-06T03:43:46;12.80;99.90
30206;DHT22;17010;51.306;3.150;2022-08-06T03:46:13;12.70;99.90
30206;DHT22;17010;51.306;3.150;2022-08-06T03:48:42;12.70;99.90
30206;DHT22;17010;51.306;3.150;2022-08-06T03:51:17;12.70;99.90
30206;DHT22;17010;51.306;3.150;2022-08-06T03:53:45;12.80;99.90
30206;DHT22;17010;51.306;3.150;2022-08-06T03:56:18;12.70;99.90
30206;DHT22;17010;51.306;3.150;2022-08-06T03:58:45;12.70;99.90
30206;DHT22;17010;51.306;3.150;2022-08-06T04:01:18;12.70;99.90
30206;DHT22;17010;51.306;3.150;2022-08-06T04:03:46;12.60;99.90
30206;DHT22;17010;51.306;3.150;2022-08-06T04:06:12;12.60;99.90
30206;DHT22;17010;51.306;3.150;2022-08-06T04:08:39;12.60;99.90
30206;DHT22;17010;51.306;3.150;2022-08-06T04:11:07;12.60;99.90
30206;DHT22;17010;51.306;3.150;2022-08-06T04:13:36;12.60;99.90
30206;DHT22;17010;51.306;3.150;2022-08-06T04:16:03;12.60;99.90
30206;DHT22;17010;51.306;3.150;2022-08-06T04:18:35;12.60;99.90
30206;DHT22;17010;51.306;3.150;2022-08-06T04:21:06;12.50;99.90
30206;DHT22;17010;51.306;3.150;2022-08-06T04:23:32;12.50;99.90
30206;DHT22;17010;51.306;3.150;2022-08-06T04:26:02;12.50;99.90
30206;DHT22;17010;51.306;3.150;2022-08-06T04:28:30;12.50;99.90
30206;DHT22;17010;51.306;3.150;2022-08-06T04:30:59;12.60;99.90
30206;DHT22;17010;51.306;3.150;2022-08-06T04:33:26;12.60;99.90
30206;DHT22;17010;51.306;3.150;2022-08-06T04:35:53;12.60;99.90
30206;DHT22;17010;51.306;3.150;2022-08-06T04:38:22;12.60;99.90
30206;DHT22;17010;51.306;3.150;2022-08-06T04:40:49;12.50;99.90
30206;DHT22;17010;51.306;3.150;2022-08-06T04:43:15;12.50;99.90
30206;DHT22;17010;51.306;3.150;2022-08-06T04:45:43;12.50;99.90
30206;DHT22;17010;51.306;3.150;2022-08-06T04:48:12;12.60;99.90
30206;DHT22;17010;51.306;3.150;2022-08-06T04:50:39;12.60;99.90
30206;DHT22;17010;51.306;3.150;2022-08-06T04:53:10;12.70;99.90
30206;DHT22;17010;51.306;3.150;2022-08-06T04:55:36;12.70;99.90
30206;DHT22;17010;51.306;3.150;2022-08-06T04:58:04;12.80;99.90
30206;DHT22;17010;51.306;3.150;2022-08-06T05:00:31;12.90;99.90
30206;DHT22;17010;51.306;3.150;2022-08-06T05:03:18;12.90;99.90
30206;DHT22;17010;51.306;3.150;2022-08-06T05:06:04;13.00;99.90
30206;DHT22;17010;51.306;3.150;2022-08-06T05:08:31;13.10;99.90
30206;DHT22;17010;51.306;3.150;2022-08-06T05:11:26;13.20;99.90
30206;DHT22;17010;51.306;3.150;2022-08-06T05:13:55;13.20;99.90
30206;DHT22;17010;51.306;3.150;2022-08-06T05:16:23;13.30;99.90
30206;DHT22;17010;51.306;3.150;2022-08-06T05:18:57;13.40;99.90
30206;DHT22;17010;51.306;3.150;2022-08-06T05:21:33;13.50;99.90
30206;DHT22;17010;51.306;3.150;2022-08-06T05:24:01;13.70;99.90
30206;DHT22;17010;51.306;3.150;2022-08-06T05:26:28;13.80;99.90
30206;DHT22;17010;51.306;3.150;2022-08-06T05:28:55;14.00;99.90
30206;DHT22;17010;51.306;3.150;2022-08-06T05:31:37;14.20;99.90
30206;DHT22;17010;51.306;3.150;2022-08-06T05:34:10;14.50;99.90
30206;DHT22;17010;51.306;3.150;2022-08-06T05:36:40;15.00;99.90
30206;DHT22;17010;51.306;3.150;2022-08-06T05:39:08;15.60;99.90
30206;DHT22;17010;51.306;3.150;2022-08-06T05:41:37;16.30;99.90
30206;DHT22;17010;51.306;3.150;2022-08-06T05:44:03;16.90;99.90
30206;DHT22;17010;51.306;3.150;2022-08-06T05:46:52;17.30;99.90
30206;DHT22;17010;51.306;3.150;2022-08-06T05:49:24;17.90;99.90
30206;DHT22;17010;51.306;3.150;2022-08-06T05:54:52;19.10;99.90
30206;DHT22;17010;51.306;3.150;2022-08-06T05:57:56;19.60;99.90
30206;DHT22;17010;51.306;3.150;2022-08-06T06:00:26;20.00;99.90
30206;DHT22;17010;51.306;3.150;2022-08-06T06:02:58;20.10;99.90
30206;DHT22;17010;51.306;3.150;2022-08-06T06:05:25;20.20;99.90
30206;DHT22;17010;51.306;3.150;2022-08-06T06:07:52;20.30;99.90
30206;DHT22;17010;51.306;3.150;2022-08-06T06:10:21;20.40;99.90
30206;DHT22;17010;51.306;3.150;2022-08-06T06:12:49;20.60;99.90
30206;DHT22;17010;51.306;3.150;2022-08-06T06:15:16;20.90;99.90
30206;DHT22;17010;51.306;3.150;2022-08-06T06:18:01;21.30;99.90
30206;DHT22;17010;51.306;3.150;2022-08-06T06:33:57;23.80;99.90
30206;DHT22;17010;51.306;3.150;2022-08-06T06:42:00;24.90;99.90
30206;DHT22;17010;51.306;3.150;2022-08-06T06:44:44;25.20;99.90
30206;DHT22;17010;51.306;3.150;2022-08-06T06:47:21;25.50;99.90
30206;DHT22;17010;51.306;3.150;2022-08-06T06:49:57;25.70;99.90
30206;DHT22;17010;51.306;3.150;2022-08-06T06:52:30;25.90;99.90
30206;DHT22;17010;51.306;3.150;2022-08-06T06:55:13;26.10;99.90
30206;DHT22;17010;51.306;3.150;2022-08-06T06:57:44;26.20;99.90
30206;DHT22;17010;51.306;3.150;2022-08-06T07:00:13;26.20;99.90
30206;DHT22;17010;51.306;3.150;2022-08-06T07:02:40;26.10;99.90
30206;DHT22;17010;51.306;3.150;2022-08-06T07:05:08;26.00;99.90
30206;DHT22;17010;51.306;3.150;2022-08-06T07:07:39;25.80;99.90
30206;DHT22;17010;51.306;3.150;2022-08-06T07:10:08;25.30;99.90
30206;DHT22;17010;51.306;3.150;2022-08-06T07:12:36;24.80;99.90
30206;DHT22;17010;51.306;3.150;2022-08-06T07:15:04;24.70;99.90
30206;DHT22;17010;51.306;3.150;2022-08-06T07:17:32;24.90;99.90
30206;DHT22;17010;51.306;3.150;2022-08-06T07:20:01;24.90;99.90
30206;DHT22;17010;51.306;3.150;2022-08-06T07:22:28;25.00;99.90
30206;DHT22;17010;51.306;3.150;2022-08-06T07:25:00;25.00;99.90
30206;DHT22;17010;51.306;3.150;2022-08-06T07:27:32;25.20;99.90
30206;DHT22;17010;51.306;3.150;2022-08-06T07:29:59;25.50;99.90
30206;DHT22;17010;51.306;3.150;2022-08-06T07:32:26;26.20;99.90
30206;DHT22;17010;51.306;3.150;2022-08-06T07:34:53;26.80;99.90
30206;DHT22;17010;51.306;3.150;2022-08-06T07:37:20;27.60;99.90
30206;DHT22;17010;51.306;3.150;2022-08-06T07:39:49;27.80;99.90
30206;DHT22;17010;51.306;3.150;2022-08-06T07:42:16;27.80;99.90
30206;DHT22;17010;51.306;3.150;2022-08-06T07:44:44;27.80;99.90
30206;DHT22;17010;51.306;3.150;2022-08-06T07:47:15;28.00;99.90
30206;DHT22;17010;51.306;3.150;2022-08-06T07:49:45;28.30;99.90
30206;DHT22;17010;51.306;3.150;2022-08-06T07:52:14;28.80;99.90
30206;DHT22;17010;51.306;3.150;2022-08-06T07:54:41;29.40;99.90
30206;DHT22;17010;51.306;3.150;2022-08-06T07:57:07;29.80;99.70
30206;DHT22;17010;51.306;3.150;2022-08-06T07:59:34;29.80;99.60
30206;DHT22;17010;51.306;3.150;2022-08-06T08:02:01;29.80;98.70
30206;DHT22;17010;51.306;3.150;2022-08-06T08:04:28;29.90;98.50
30206;DHT22;17010;51.306;3.150;2022-08-06T08:07:14;29.60;97.50
30206;DHT22;17010;51.306;3.150;2022-08-06T08:09:42;28.50;97.50
30206;DHT22;17010;51.306;3.150;2022-08-06T08:12:13;27.60;98.10
30206;DHT22;17010;51.306;3.150;2022-08-06T08:14:41;26.50;98.80
30206;DHT22;17010;51.306;3.150;2022-08-06T08:17:08;25.70;99.60
30206;DHT22;17010;51.306;3.150;2022-08-06T08:19:35;25.00;99.90
30206;DHT22;17010;51.306;3.150;2022-08-06T08:22:05;24.90;99.90
30206;DHT22;17010;51.306;3.150;2022-08-06T08:24:33;25.30;99.90
30206;DHT22;17010;51.306;3.150;2022-08-06T08:27:00;25.80;99.90
30206;DHT22;17010;51.306;3.150;2022-08-06T08:29:27;26.50;99.90
30206;DHT22;17010;51.306;3.150;2022-08-06T08:31:55;27.20;99.60
30206;DHT22;17010;51.306;3.150;2022-08-06T08:34:22;27.20;99.70
30206;DHT22;17010;51.306;3.150;2022-08-06T08:36:49;27.50;98.40
30206;DHT22;17010;51.306;3.150;2022-08-06T08:39:20;27.30;98.50
30206;DHT22;17010;51.306;3.150;2022-08-06T08:41:59;27.60;98.70
30206;DHT22;17010;51.306;3.150;2022-08-06T08:44:28;27.90;97.70
30206;DHT22;17010;51.306;3.150;2022-08-06T08:46:57;28.20;97.60
30206;DHT22;17010;51.306;3.150;2022-08-06T08:49:41;28.30;97.20
30206;DHT22;17010;51.306;3.150;2022-08-06T08:52:13;27.70;96.80
30206;DHT22;17010;51.306;3.150;2022-08-06T08:54:48;27.90;98.10
30206;DHT22;17010;51.306;3.150;2022-08-06T08:57:16;28.20;97.20
30206;DHT22;17010;51.306;3.150;2022-08-06T08:59:42;28.20;96.70
30206;DHT22;17010;51.306;3.150;2022-08-06T09:02:12;28.60;98.00
30206;DHT22;17010;51.306;3.150;2022-08-06T09:04:40;29.00;97.10
30206;DHT22;17010;51.306;3.150;2022-08-06T09:07:07;29.40;96.40
30206;DHT22;17010;51.306;3.150;2022-08-06T09:09:34;29.20;95.20
30206;DHT22;17010;51.306;3.150;2022-08-06T09:12:03;29.60;95.60
30206;DHT22;17010;51.306;3.150;2022-08-06T09:14:30;29.60;95.30
30206;DHT22;17010;51.306;3.150;2022-08-06T09:17:00;29.50;95.40
30206;DHT22;17010;51.306;3.150;2022-08-06T09:19:27;29.20;95.50
30206;DHT22;17010;51.306;3.150;2022-08-06T09:21:59;29.40;95.00
30206;DHT22;17010;51.306;3.150;2022-08-06T09:24:27;29.20;95.10
30206;DHT22;17010;51.306;3.150;2022-08-06T09:27:05;28.50;94.40
30206;DHT22;17010;51.306;3.150;2022-08-06T09:29:32;28.00;94.80
30206;DHT22;17010;51.306;3.150;2022-08-06T09:32:02;27.70;95.90
30206;DHT22;17010;51.306;3.150;2022-08-06T09:34:37;28.10;96.40
30206;DHT22;17010;51.306;3.150;2022-08-06T09:37:04;28.30;95.60
30206;DHT22;17010;51.306;3.150;2022-08-06T09:39:38;28.60;94.50
30206;DHT22;17010;51.306;3.150;2022-08-06T09:42:13;28.00;94.50
30206;DHT22;17010;51.306;3.150;2022-08-06T09:44:39;27.80;95.80
30206;DHT22;17010;51.306;3.150;2022-08-06T09:47:06;27.90;95.70
30206;DHT22;17010;51.306;3.150;2022-08-06T09:49:43;27.90;96.00
30206;DHT22;17010;51.306;3.150;2022-08-06T09:52:15;28.00;95.70
30206;DHT22;17010;51.306;3.150;2022-08-06T09:54:43;27.50;95.20
30206;DHT22;17010;51.306;3.150;2022-08-06T09:57:10;27.30;96.50
30206;DHT22;17010;51.306;3.150;2022-08-06T09:59:47;27.70;95.90
30206;DHT22;17010;51.306;3.150;2022-08-06T10:02:15;28.50;95.20
30206;DHT22;17010;51.306;3.150;2022-08-06T10:04:44;28.50;94.30
30206;DHT22;17010;51.306;3.150;2022-08-06T10:07:10;28.30;94.80
30206;DHT22;17010;51.306;3.150;2022-08-06T10:09:49;27.80;94.40
30206;DHT22;17010;51.306;3.150;2022-08-06T10:12:20;27.60;94.90
30206;DHT22;17010;51.306;3.150;2022-08-06T10:14:47;28.10;96.60
30206;DHT22;17010;51.306;3.150;2022-08-06T10:17:14;28.50;95.10
30206;DHT22;17010;51.306;3.150;2022-08-06T10:20:15;28.30;95.50
30206;DHT22;17010;51.306;3.150;2022-08-06T10:22:48;28.80;95.30
30206;DHT22;17010;51.306;3.150;2022-08-06T10:25:15;28.80;94.70
30206;DHT22;17010;51.306;3.150;2022-08-06T10:27:42;28.60;94.20
30206;DHT22;17010;51.306;3.150;2022-08-06T10:30:09;28.00;95.40
30206;DHT22;17010;51.306;3.150;2022-08-06T10:32:37;28.10;95.30
30206;DHT22;17010;51.306;3.150;2022-08-06T10:35:10;28.00;94.80
30206;DHT22;17010;51.306;3.150;2022-08-06T10:37:42;28.50;94.70
30206;DHT22;17010;51.306;3.150;2022-08-06T10:40:11;28.50;92.60
30206;DHT22;17010;51.306;3.150;2022-08-06T10:42:38;28.10;93.00
30206;DHT22;17010;51.306;3.150;2022-08-06T10:45:06;28.00;94.90
30206;DHT22;17010;51.306;3.150;2022-08-06T10:47:33;28.00;94.30
30206;DHT22;17010;51.306;3.150;2022-08-06T10:50:01;28.50;95.10
30206;DHT22;17010;51.306;3.150;2022-08-06T10:52:28;28.60;94.20
30206;DHT22;17010;51.306;3.150;2022-08-06T10:54:54;28.40;93.80
30206;DHT22;17010;51.306;3.150;2022-08-06T10:57:22;28.70;94.50
30206;DHT22;17010;51.306;3.150;2022-08-06T10:59:48;28.80;93.90
30206;DHT22;17010;51.306;3.150;2022-08-06T11:05:20;28.40;92.30
30206;DHT22;17010;51.306;3.150;2022-08-06T11:08:16;28.40;93.00
30206;DHT22;17010;51.306;3.150;2022-08-06T11:10:58;28.50;93.70
30206;DHT22;17010;51.306;3.150;2022-08-06T11:16:26;28.70;93.80
30206;DHT22;17010;51.306;3.150;2022-08-06T11:19:09;28.70;94.40
30206;DHT22;17010;51.306;3.150;2022-08-06T11:21:47;28.90;94.10
30206;DHT22;17010;51.306;3.150;2022-08-06T11:24:15;28.60;94.80
30206;DHT22;17010;51.306;3.150;2022-08-06T11:26:43;28.10;93.10
30206;DHT22;17010;51.306;3.150;2022-08-06T11:29:13;27.60;94.00
30206;DHT22;17010;51.306;3.150;2022-08-06T11:31:43;27.40;95.40
30206;DHT22;17010;51.306;3.150;2022-08-06T11:34:15;27.50;95.10
30206;DHT22;17010;51.306;3.150;2022-08-06T11:36:51;27.40;94.00
30206;DHT22;17010;51.306;3.150;2022-08-06T11:39:18;27.50;94.20
30206;DHT22;17010;51.306;3.150;2022-08-06T11:41:56;27.60;95.50
30206;DHT22;17010;51.306;3.150;2022-08-06T11:44:34;27.70;95.20
30206;DHT22;17010;51.306;3.150;2022-08-06T11:47:16;28.00;95.30
30206;DHT22;17010;51.306;3.150;2022-08-06T11:49:47;28.40;94.10
30206;DHT22;17010;51.306;3.150;2022-08-06T11:55:05;28.30;94.30
30206;DHT22;17010;51.306;3.150;2022-08-06T11:57:35;28.60;94.00
30206;DHT22;17010;51.306;3.150;2022-08-06T12:00:08;28.20;94.10
30206;DHT22;17010;51.306;3.150;2022-08-06T12:08:10;27.60;93.90
30206;DHT22;17010;51.306;3.150;2022-08-06T12:10:33;27.10;94.30
30206;DHT22;17010;51.306;3.150;2022-08-06T12:13:02;26.60;94.30
30206;DHT22;17010;51.306;3.150;2022-08-06T12:17:58;27.00;94.70
30206;DHT22;17010;51.306;3.150;2022-08-06T12:20:33;27.00;94.70
30206;DHT22;17010;51.306;3.150;2022-08-06T12:23:09;27.20;94.00
30206;DHT22;17010;51.306;3.150;2022-08-06T12:25:41;26.90;94.80
30206;DHT22;17010;51.306;3.150;2022-08-06T12:28:12;26.40;94.00
30206;DHT22;17010;51.306;3.150;2022-08-06T12:30:41;26.40;95.70
30206;DHT22;17010;51.306;3.150;2022-08-06T12:33:14;26.20;95.60
30206;DHT22;17010;51.306;3.150;2022-08-06T12:35:51;25.90;95.20
30206;DHT22;17010;51.306;3.150;2022-08-06T12:38:21;25.80;96.90
30206;DHT22;17010;51.306;3.150;2022-08-06T12:40:54;25.70;97.40
30206;DHT22;17010;51.306;3.150;2022-08-06T12:43:20;25.90;97.50
30206;DHT22;17010;51.306;3.150;2022-08-06T12:45:55;26.10;96.60
30206;DHT22;17010;51.306;3.150;2022-08-06T12:48:23;26.00;96.30
30206;DHT22;17010;51.306;3.150;2022-08-06T12:51:00;26.00;95.70
30206;DHT22;17010;51.306;3.150;2022-08-06T12:53:26;25.80;95.40
30206;DHT22;17010;51.306;3.150;2022-08-06T12:55:55;25.80;95.70
30206;DHT22;17010;51.306;3.150;2022-08-06T12:58:30;25.90;96.80
30206;DHT22;17010;51.306;3.150;2022-08-06T13:00:59;25.80;96.90
30206;DHT22;17010;51.306;3.150;2022-08-06T13:03:25;25.70;95.70
30206;DHT22;17010;51.306;3.150;2022-08-06T13:05:57;25.90;95.90
30206;DHT22;17010;51.306;3.150;2022-08-06T13:08:25;25.90;96.70
30206;DHT22;17010;51.306;3.150;2022-08-06T13:10:56;25.80;96.60
30206;DHT22;17010;51.306;3.150;2022-08-06T13:16:12;25.30;96.90
30206;DHT22;17010;51.306;3.150;2022-08-06T13:18:40;25.30;96.80
30206;DHT22;17010;51.306;3.150;2022-08-06T13:21:17;24.90;97.00
30206;DHT22;17010;51.306;3.150;2022-08-06T13:23:48;24.80;97.80
30206;DHT22;17010;51.306;3.150;2022-08-06T13:29:25;24.40;98.30
30206;DHT22;17010;51.306;3.150;2022-08-06T13:32:04;24.40;98.40
30206;DHT22;17010;51.306;3.150;2022-08-06T13:34:47;24.40;99.00
30206;DHT22;17010;51.306;3.150;2022-08-06T13:37:14;24.50;98.80
30206;DHT22;17010;51.306;3.150;2022-08-06T13:39:51;24.50;98.80
30206;DHT22;17010;51.306;3.150;2022-08-06T13:42:17;24.70;98.90
30206;DHT22;17010;51.306;3.150;2022-08-06T13:44:44;24.50;98.40
30206;DHT22;17010;51.306;3.150;2022-08-06T13:47:13;24.20;98.80
30206;DHT22;17010;51.306;3.150;2022-08-06T13:49:44;23.90;99.30
30206;DHT22;17010;51.306;3.150;2022-08-06T13:52:13;23.70;99.80
30206;DHT22;17010;51.306;3.150;2022-08-06T13:54:42;23.80;99.90
30206;DHT22;17010;51.306;3.150;2022-08-06T13:57:08;23.90;99.10
30206;DHT22;17010;51.306;3.150;2022-08-06T13:59:35;24.10;99.70
30206;DHT22;17010;51.306;3.150;2022-08-06T14:02:03;24.10;98.60
30206;DHT22;17010;51.306;3.150;2022-08-06T14:04:30;23.70;99.10
30206;DHT22;17010;51.306;3.150;2022-08-06T14:07:00;23.30;99.90
30206;DHT22;17010;51.306;3.150;2022-08-06T14:09:31;23.10;99.20
30206;DHT22;17010;51.306;3.150;2022-08-06T14:12:00;22.90;99.90
30206;DHT22;17010;51.306;3.150;2022-08-06T14:14:33;22.70;99.90
30206;DHT22;17010;51.306;3.150;2022-08-06T14:17:02;22.40;99.90
30206;DHT22;17010;51.306;3.150;2022-08-06T14:19:35;22.20;99.90
30206;DHT22;17010;51.306;3.150;2022-08-06T14:22:02;22.20;99.90
30206;DHT22;17010;51.306;3.150;2022-08-06T14:24:31;22.30;99.90
30206;DHT22;17010;51.306;3.150;2022-08-06T14:26:59;22.20;99.90
30206;DHT22;17010;51.306;3.150;2022-08-06T14:29:26;22.00;99.90
30206;DHT22;17010;51.306;3.150;2022-08-06T14:31:56;21.90;99.90
30206;DHT22;17010;51.306;3.150;2022-08-06T14:34:24;21.90;99.90
30206;DHT22;17010;51.306;3.150;2022-08-06T14:36:53;22.00;99.90
30206;DHT22;17010;51.306;3.150;2022-08-06T14:39:21;21.90;99.90
30206;DHT22;17010;51.306;3.150;2022-08-06T14:41:50;21.80;99.90
30206;DHT22;17010;51.306;3.150;2022-08-06T14:44:35;21.60;99.90
30206;DHT22;17010;51.306;3.150;2022-08-06T14:47:19;21.70;99.90
30206;DHT22;17010;51.306;3.150;2022-08-06T14:49:45;21.70;99.90
30206;DHT22;17010;51.306;3.150;2022-08-06T14:52:12;21.50;99.90
30206;DHT22;17010;51.306;3.150;2022-08-06T14:54:38;21.50;99.90
30206;DHT22;17010;51.306;3.150;2022-08-06T14:57:06;21.50;99.90
30206;DHT22;17010;51.306;3.150;2022-08-06T14:59:33;21.60;99.90
30206;DHT22;17010;51.306;3.150;2022-08-06T15:02:02;21.60;99.90
30206;DHT22;17010;51.306;3.150;2022-08-06T15:04:29;21.50;99.90
30206;DHT22;17010;51.306;3.150;2022-08-06T15:06:58;21.30;99.90
30206;DHT22;17010;51.306;3.150;2022-08-06T15:09:25;21.20;99.90
30206;DHT22;17010;51.306;3.150;2022-08-06T15:11:51;21.00;99.90
30206;DHT22;17010;51.306;3.150;2022-08-06T15:14:18;21.10;99.90
30206;DHT22;17010;51.306;3.150;2022-08-06T15:16:45;21.10;99.90
30206;DHT22;17010;51.306;3.150;2022-08-06T15:19:12;21.20;99.90
30206;DHT22;17010;51.306;3.150;2022-08-06T15:21:38;21.10;99.90
30206;DHT22;17010;51.306;3.150;2022-08-06T15:24:07;21.20;99.90
30206;DHT22;17010;51.306;3.150;2022-08-06T15:26:34;21.20;99.90
30206;DHT22;17010;51.306;3.150;2022-08-06T15:29:01;21.20;99.90
30206;DHT22;17010;51.306;3.150;2022-08-06T15:31:27;21.10;99.90
30206;DHT22;17010;51.306;3.150;2022-08-06T15:33:54;21.00;99.90
30206;DHT22;17010;51.306;3.150;2022-08-06T15:36:20;20.90;99.90
30206;DHT22;17010;51.306;3.150;2022-08-06T15:38:47;20.90;99.90
30206;DHT22;17010;51.306;3.150;2022-08-06T15:41:15;20.80;99.90
30206;DHT22;17010;51.306;3.150;2022-08-06T15:43:41;20.80;99.90
30206;DHT22;17010;51.306;3.150;2022-08-06T15:46:08;20.80;99.90
30206;DHT22;17010;51.306;3.150;2022-08-06T15:48:34;20.70;99.90
30206;DHT22;17010;51.306;3.150;2022-08-06T15:51:00;20.70;99.90
30206;DHT22;17010;51.306;3.150;2022-08-06T15:53:27;20.80;99.90
30206;DHT22;17010;51.306;3.150;2022-08-06T15:55:53;20.80;99.90
30206;DHT22;17010;51.306;3.150;2022-08-06T15:58:22;20.90;99.90
30206;DHT22;17010;51.306;3.150;2022-08-06T16:00:51;20.80;99.90
30206;DHT22;17010;51.306;3.150;2022-08-06T16:03:18;20.90;99.90
30206;DHT22;17010;51.306;3.150;2022-08-06T16:05:46;20.80;99.90
30206;DHT22;17010;51.306;3.150;2022-08-06T16:08:13;20.60;99.90
30206;DHT22;17010;51.306;3.150;2022-08-06T16:10:47;20.60;99.90
30206;DHT22;17010;51.306;3.150;2022-08-06T16:13:18;20.60;99.90
30206;DHT22;17010;51.306;3.150;2022-08-06T16:15:46;20.60;99.90
30206;DHT22;17010;51.306;3.150;2022-08-06T16:18:12;20.60;99.90
30206;DHT22;17010;51.306;3.150;2022-08-06T16:20:41;20.50;99.90
30206;DHT22;17010;51.306;3.150;2022-08-06T16:23:09;20.50;99.90
30206;DHT22;17010;51.306;3.150;2022-08-06T16:25:39;20.30;99.90
30206;DHT22;17010;51.306;3.150;2022-08-06T16:28:05;20.40;99.90
30206;DHT22;17010;51.306;3.150;2022-08-06T16:30:33;20.40;99.90
30206;DHT22;17010;51.306;3.150;2022-08-06T16:32:59;20.40;99.90
30206;DHT22;17010;51.306;3.150;2022-08-06T16:35:26;20.40;99.90
30206;DHT22;17010;51.306;3.150;2022-08-06T16:37:53;20.40;99.90